Time,TemperatureF,DewpointF,PressureIn,WindDirection,WindDirectionDegrees,WindSpeedMPH,WindSpeedGustMPH,Humidity,HourlyPrecipIn,Conditions,Clouds,dailyrainin,SoftwareType,DateUTC
2013-06-12 00:11:00,62.6,62.0,30.02,SSE,167,0.0,1.0,97,0.00,,,0.00,weatherlink.com 1.10,2013-06-12 04:11:00,
2013-06-12 00:26:00,62.6,62.0,30.02,SSE,158,0.0,0.0,97,0.00,,,0.00,weatherlink.com 1.10,2013-06-12 04:26:00,
2013-06-12 01:11:00,62.4,62.0,30.00,SSE,163,1.0,2.0,98,0.00,,,0.00,weatherlink.com 1.10,2013-06-12 05:11:00,
2013-06-12 01:41:00,62.2,61.0,30.00,SSE,152,0.0,0.0,97,0.00,,,0.00,weatherlink.com 1.10,2013-06-12 05:41:00,
2013-06-12 01:56:00,62.2,62.0,30.00,SSE,152,0.0,1.0,98,0.00,,,0.00,weatherlink.com 1.10,2013-06-12 05:56:00,
2013-06-12 02:11:00,61.8,61.0,29.99,SSE,152,0.0,0.0,98,0.00,,,0.00,weatherlink.com 1.10,2013-06-12 06:11:00,
2013-06-12 02:26:00,61.6,61.0,30.00,SSE,152,0.0,0.0,98,0.00,,,0.00,weatherlink.com 1.10,2013-06-12 06:26:00,
2013-06-12 02:41:00,61.6,61.0,30.00,SSE,152,0.0,0.0,98,0.00,,,0.00,weatherlink.com 1.10,2013-06-12 06:41:00,
2013-06-12 03:11:00,61.2,61.0,30.00,SSE,152,0.0,0.0,98,0.00,,,0.00,weatherlink.com 1.10,2013-06-12 07:11:00,
2013-06-12 03:26:00,61.3,61.0,30.00,East,79,1.0,1.0,98,0.00,,,0.00,weatherlink.com 1.10,2013-06-12 07:26:00,
2013-06-12 03:41:00,61.0,61.0,30.00,East,79,0.0,1.0,98,0.00,,,0.00,weatherlink.com 1.10,2013-06-12 07:41:00,
2013-06-12 03:56:00,61.1,61.0,30.00,East,79,0.0,0.0,98,0.00,,,0.00,weatherlink.com 1.10,2013-06-12 07:56:00,
2013-06-12 04:11:00,60.6,60.0,30.00,East,79,0.0,0.0,98,0.00,,,0.00,weatherlink.com 1.10,2013-06-12 08:11:00,
2013-06-12 04:26:00,60.6,60.0,30.00,East,79,0.0,0.0,98,0.00,,,0.00,weatherlink.com 1.10,2013-06-12 08:26:00,
2013-06-12 04:41:00,60.4,60.0,30.00,East,79,0.0,0.0,99,0.00,,,0.00,weatherlink.com 1.10,2013-06-12 08:41:00,
2013-06-12 04:56:00,60.3,60.0,30.00,East,80,0.0,0.0,99,0.00,,,0.00,weatherlink.com 1.10,2013-06-12 08:56:00,
2013-06-12 05:26:00,60.3,60.0,30.01,East,81,0.0,0.0,99,0.00,,,0.00,weatherlink.com 1.10,2013-06-12 09:26:00,
2013-06-12 05:41:00,60.3,60.0,30.01,East,80,0.0,0.0,99,0.00,,,0.00,weatherlink.com 1.10,2013-06-12 09:41:00,
2013-06-12 05:56:00,60.3,60.0,30.01,East,80,0.0,1.0,99,0.00,,,0.00,weatherlink.com 1.10,2013-06-12 09:56:00,
2013-06-12 06:11:00,60.5,60.0,30.01,East,80,0.0,0.0,99,0.00,,,0.00,weatherlink.com 1.10,2013-06-12 10:11:00,
2013-06-12 06:26:00,60.5,60.0,30.00,East,81,0.0,1.0,99,0.00,,,0.00,weatherlink.com 1.10,2013-06-12 10:26:00,
2013-06-12 06:41:00,60.6,60.0,30.01,East,80,0.0,0.0,99,0.00,,,0.00,weatherlink.com 1.10,2013-06-12 10:41:00,
2013-06-12 06:56:00,60.6,60.0,30.01,East,80,0.0,0.0,99,0.00,,,0.00,weatherlink.com 1.10,2013-06-12 10:56:00,
2013-06-12 07:11:00,61.0,61.0,30.01,East,79,0.0,1.0,99,0.00,,,0.00,weatherlink.com 1.10,2013-06-12 11:11:00,
2013-06-12 07:26:00,61.1,61.0,30.02,East,79,0.0,0.0,99,0.00,,,0.00,weatherlink.com 1.10,2013-06-12 11:26:00,
2013-06-12 07:41:00,61.2,61.0,30.02,East,79,0.0,1.0,99,0.00,,,0.00,weatherlink.com 1.10,2013-06-12 11:41:00,
2013-06-12 07:56:00,62.3,62.0,30.02,East,81,0.0,0.0,99,0.00,,,0.00,weatherlink.com 1.10,2013-06-12 11:56:00,
2013-06-12 08:12:00,63.2,63.0,30.02,SE,134,0.0,1.0,99,0.00,,,0.00,weatherlink.com 1.10,2013-06-12 12:12:00,
2013-06-12 08:27:00,64.5,64.0,30.02,SE,134,0.0,1.0,99,0.00,,,0.00,weatherlink.com 1.10,2013-06-12 12:27:00,
2013-06-12 08:42:00,66.4,66.0,30.02,NE,34,0.0,1.0,99,0.00,,,0.00,weatherlink.com 1.10,2013-06-12 12:42:00,
2013-06-12 08:57:00,68.0,68.0,30.02,SE,132,0.0,1.0,99,0.00,,,0.00,weatherlink.com 1.10,2013-06-12 12:57:00,
2013-06-12 09:12:00,70.8,69.0,30.02,SSE,153,2.0,2.0,95,0.00,,,0.00,weatherlink.com 1.10,2013-06-12 13:12:00,
2013-06-12 09:42:00,75.1,72.0,30.02,SSE,148,4.0,5.0,89,0.00,,,0.00,weatherlink.com 1.10,2013-06-12 13:42:00,
2013-06-12 09:57:00,78.1,73.0,30.01,SE,137,2.0,4.0,83,0.00,,,0.00,weatherlink.com 1.10,2013-06-12 13:57:00,
2013-06-12 10:12:00,80.3,74.0,30.01,North,8,2.0,5.0,80,0.00,,,0.00,weatherlink.com 1.10,2013-06-12 14:12:00,
2013-06-12 10:27:00,81.0,72.0,30.01,SW,219,0.0,9.0,75,0.00,,,0.00,weatherlink.com 1.10,2013-06-12 14:27:00,
2013-06-12 10:42:00,81.7,73.0,30.01,SE,139,1.0,5.0,75,0.00,,,0.00,weatherlink.com 1.10,2013-06-12 14:42:00,
2013-06-12 10:57:00,82.6,74.0,30.01,SE,131,3.0,5.0,74,0.00,,,0.00,weatherlink.com 1.10,2013-06-12 14:57:00,
2013-06-12 11:13:00,83.4,74.0,30.01,SSW,203,1.0,7.0,72,0.00,,,0.00,weatherlink.com 1.10,2013-06-12 15:13:00,
2013-06-12 11:42:00,83.8,74.0,30.01,NE,46,1.0,6.0,72,0.00,,,0.00,weatherlink.com 1.10,2013-06-12 15:42:00,
2013-06-12 11:57:00,83.4,74.0,30.01,ESE,108,5.0,7.0,74,0.00,,,0.00,weatherlink.com 1.10,2013-06-12 15:57:00,
2013-06-12 12:12:00,84.3,73.0,30.01,ENE,70,2.0,7.0,69,0.00,,,0.00,weatherlink.com 1.10,2013-06-12 16:12:00,
2013-06-12 12:27:00,84.2,73.0,30.01,NW,319,1.0,7.0,68,0.00,,,0.00,weatherlink.com 1.10,2013-06-12 16:27:00,
2013-06-12 12:43:00,83.6,73.0,30.01,SSE,153,1.0,7.0,70,0.00,,,0.00,weatherlink.com 1.10,2013-06-12 16:43:00,
2013-06-12 13:13:00,85.0,73.0,30.00,NNW,329,2.0,11.0,67,0.00,,,0.00,weatherlink.com 1.10,2013-06-12 17:13:00,
2013-06-12 13:28:00,85.9,73.0,30.00,SE,132,2.0,7.0,65,0.00,,,0.00,weatherlink.com 1.10,2013-06-12 17:28:00,
2013-06-12 13:43:00,87.0,75.0,29.99,East,95,0.0,11.0,67,0.00,,,0.00,weatherlink.com 1.10,2013-06-12 17:43:00,
2013-06-12 13:58:00,87.3,75.0,29.99,West,274,1.0,4.0,66,0.00,,,0.00,weatherlink.com 1.10,2013-06-12 17:58:00,
2013-06-12 14:28:00,86.8,72.0,29.98,ENE,73,1.0,7.0,62,0.00,,,0.00,weatherlink.com 1.10,2013-06-12 18:28:00,
2013-06-12 14:43:00,87.5,72.0,29.97,SW,226,0.0,8.0,60,0.00,,,0.00,weatherlink.com 1.10,2013-06-12 18:43:00,
2013-06-12 14:58:00,88.2,73.0,29.96,East,84,1.0,9.0,61,0.00,,,0.00,weatherlink.com 1.10,2013-06-12 18:58:00,
2013-06-12 15:13:00,88.0,72.0,29.96,SSE,150,2.0,9.0,59,0.00,,,0.00,weatherlink.com 1.10,2013-06-12 19:13:00,
2013-06-12 15:28:00,88.9,71.0,29.95,SSE,152,4.0,10.0,56,0.00,,,0.00,weatherlink.com 1.10,2013-06-12 19:28:00,
2013-06-12 15:43:00,89.6,74.0,29.95,ESE,109,6.0,6.0,60,0.00,,,0.00,weatherlink.com 1.10,2013-06-12 19:43:00,
2013-06-12 15:58:00,88.7,72.0,29.95,SSE,150,0.0,7.0,58,0.00,,,0.00,weatherlink.com 1.10,2013-06-12 19:58:00,
2013-06-12 16:28:00,88.6,72.0,29.93,ESE,115,3.0,8.0,58,0.00,,,0.00,weatherlink.com 1.10,2013-06-12 20:28:00,
2013-06-12 16:43:00,87.6,71.0,29.93,SE,130,5.0,9.0,58,0.00,,,0.00,weatherlink.com 1.10,2013-06-12 20:43:00,
2013-06-12 16:59:00,88.4,72.0,29.93,South,191,6.0,12.0,59,0.00,,,0.00,weatherlink.com 1.10,2013-06-12 20:59:00,
2013-06-12 17:30:00,87.7,72.0,29.92,SW,228,1.0,6.0,60,0.00,,,0.00,weatherlink.com 1.10,2013-06-12 21:30:00,
2013-06-12 17:44:00,87.7,73.0,29.91,SSE,160,3.0,6.0,62,0.00,,,0.00,weatherlink.com 1.10,2013-06-12 21:44:00,
2013-06-12 18:00:00,87.9,72.0,29.90,SSE,165,7.0,8.0,59,0.00,,,0.00,weatherlink.com 1.10,2013-06-12 22:00:00,
2013-06-12 18:14:00,87.4,72.0,29.89,ESE,119,4.0,7.0,60,0.00,,,0.00,weatherlink.com 1.10,2013-06-12 22:14:00,
2013-06-12 18:30:00,86.8,71.0,29.89,South,171,2.0,9.0,60,0.00,,,0.00,weatherlink.com 1.10,2013-06-12 22:30:00,
2013-06-12 18:45:00,86.5,70.0,29.89,SSE,148,3.0,6.0,59,0.00,,,0.00,weatherlink.com 1.10,2013-06-12 22:45:00,
2013-06-12 18:59:00,86.7,71.0,29.89,SSW,204,4.0,6.0,59,0.00,,,0.00,weatherlink.com 1.10,2013-06-12 22:59:00,
2013-06-12 19:59:00,82.7,70.0,29.88,SSE,148,0.0,4.0,65,0.00,,,0.00,weatherlink.com 1.10,2013-06-12 23:59:00,
2013-06-12 20:14:00,81.9,69.0,29.88,SSE,152,0.0,2.0,66,0.00,,,0.00,weatherlink.com 1.10,2013-06-13 00:14:00,
2013-06-12 20:44:00,79.2,69.0,29.88,SSE,155,1.0,2.0,71,0.00,,,0.00,weatherlink.com 1.10,2013-06-13 00:44:00,
2013-06-12 20:59:00,77.9,69.0,29.87,SSE,152,0.0,-999.0,74,-99.99,,,0.00,weatherlink.com 1.10,2013-06-13 00:59:00,
2013-06-12 21:14:00,77.0,69.0,29.88,SE,146,0.0,1.0,76,0.00,,,0.00,weatherlink.com 1.10,2013-06-13 01:14:00,
2013-06-12 21:29:00,75.7,70.0,29.88,East,99,0.0,1.0,82,0.00,,,0.00,weatherlink.com 1.10,2013-06-13 01:29:00,
2013-06-12 21:44:00,75.9,69.0,29.88,SSE,155,1.0,2.0,80,0.00,,,0.00,weatherlink.com 1.10,2013-06-13 01:44:00,
2013-06-12 21:59:00,75.5,69.0,29.88,SSE,154,0.0,0.0,81,0.00,,,0.00,weatherlink.com 1.10,2013-06-13 01:59:00,
2013-06-12 22:14:00,74.4,69.0,29.88,SSE,154,0.0,0.0,84,0.00,,,0.00,weatherlink.com 1.10,2013-06-13 02:14:00,
2013-06-12 22:29:00,73.9,70.0,29.87,South,183,0.0,1.0,86,0.00,,,0.00,weatherlink.com 1.10,2013-06-13 02:29:00,
2013-06-12 22:44:00,74.2,70.0,29.87,South,178,1.0,3.0,87,0.00,,,0.00,weatherlink.com 1.10,2013-06-13 02:44:00,
2013-06-12 22:59:00,74.5,70.0,29.88,South,169,1.0,8.0,86,0.00,,,0.00,weatherlink.com 1.10,2013-06-13 02:59:00,
2013-06-12 23:14:00,75.1,71.0,29.87,South,170,1.0,6.0,86,0.00,,,0.00,weatherlink.com 1.10,2013-06-13 03:14:00,
2013-06-12 23:29:00,75.1,71.0,29.86,SSE,147,0.0,6.0,86,0.00,,,0.00,weatherlink.com 1.10,2013-06-13 03:29:00,
2013-06-12 23:44:00,73.9,70.0,29.87,SE,135,0.0,3.0,87,0.00,,,0.00,weatherlink.com 1.10,2013-06-13 03:44:00,
2013-06-12 23:59:00,72.9,70.0,29.87,NE,36,0.0,2.0,89,0.00,,,0.00,weatherlink.com 1.10,2013-06-13 03:59:00,